Time;durP1;ratioP1;P1;durP2;ratioP2;P2;SDS_P1;SDS_P2;PMS_P1;PMS_P2;Temp;Humidity;BMP_temperature;BMP_pressure;BME280_temperature;BME280_humidity;BME280_pressure;Samples;Min_cycle;Max_cycle;Signal;HPM_P1;HPM_P2
2022/11/07 00:00:30;;;;;;;6.25;4.35;;;6.50;99.90;;;;;;5087908;28;20066;-74
2022/11/07 00:02:56;;;;;;;6.80;4.68;;;6.50;99.90;;;;;;5086564;28;20105;-74
2022/11/07 00:05:22;;;;;;;7.90;3.83;;;6.40;99.90;;;;;;5088131;28;20097;-75
2022/11/07 00:07:47;;;;;;;5.78;4.38;;;6.40;99.90;;;;;;5087986;28;20153;-74
2022/11/07 00:10:13;;;;;;;4.63;4.00;;;6.40;99.90;;;;;;5088238;28;20024;-76
2022/11/07 00:12:39;;;;;;;4.35;3.17;;;6.30;99.90;;;;;;5087811;28;20351;-76
2022/11/07 00:15:06;;;;;;;6.10;3.92;;;6.30;99.90;;;;;;5088694;28;20032;-75
2022/11/07 00:17:32;;;;;;;6.57;4.13;;;6.40;99.90;;;;;;5088586;28;20028;-75
2022/11/07 00:19:57;;;;;;;24.30;10.00;;;6.40;99.90;;;;;;5087774;28;20478;-75
2022/11/07 00:22:23;;;;;;;9.93;5.20;;;6.50;99.90;;;;;;5087594;28;20034;-75
2022/11/07 00:24:49;;;;;;;9.13;3.50;;;6.60;99.90;;;;;;5087588;28;20455;-77
2022/11/07 00:27:14;;;;;;;7.43;4.53;;;7.00;99.90;;;;;;5087997;28;20031;-75
2022/11/07 00:29:40;;;;;;;6.18;3.55;;;7.10;99.90;;;;;;5089448;28;20096;-74
2022/11/07 00:32:06;;;;;;;11.00;5.55;;;7.50;99.90;;;;;;5089160;28;20035;-74
2022/11/07 00:34:34;;;;;;;7.88;4.00;;;5.70;99.90;;;;;;5089928;28;20477;-74
2022/11/07 00:37:01;;;;;;;6.75;3.78;;;8.10;99.90;;;;;;5090284;28;20103;-74
2022/11/07 00:39:27;;;;;;;5.53;1.38;;;9.20;99.90;;;;;;5089439;28;20020;-74
2022/11/07 00:41:53;;;;;;;0.45;0.45;;;9.90;99.90;;;;;;5072148;28;20024;-74
2022/11/07 00:44:19;;;;;;;0.40;0.40;;;10.00;99.90;;;;;;5089955;28;20031;-74
2022/11/07 00:46:44;;;;;;;0.82;0.30;;;10.50;99.90;;;;;;5090814;28;20074;-74
2022/11/07 00:49:10;;;;;;;0.40;0.40;;;11.00;99.90;;;;;;5090394;28;20114;-74
2022/11/07 00:51:36;;;;;;;0.30;0.30;;;11.40;99.90;;;;;;5090618;28;20022;-74
2022/11/07 00:54:03;;;;;;;0.30;0.30;;;11.50;99.90;;;;;;5090564;28;20065;-75
2022/11/07 00:56:29;;;;;;;1.45;0.55;;;11.70;99.90;;;;;;5090408;28;20017;-76
2022/11/07 00:58:56;;;;;;;0.93;0.30;;;11.80;99.90;;;;;;5090294;28;20113;-74
2022/11/07 01:01:27;;;;;;;0.55;0.35;;;11.90;99.90;;;;;;5090376;28;20520;-74
2022/11/07 01:06:40;;;;;;;3.42;0.75;;;12.10;99.90;;;;;;5090679;28;20039;-74
2022/11/07 01:09:08;;;;;;;0.90;0.50;;;12.30;99.90;;;;;;5090320;28;20020;-73
2022/11/07 01:11:36;;;;;;;0.20;0.20;;;12.30;99.90;;;;;;5071942;28;20031;-77
2022/11/07 01:14:02;;;;;;;0.50;0.30;;;12.40;99.90;;;;;;5089862;28;20469;-74
2022/11/07 01:16:29;;;;;;;0.88;0.43;;;12.30;99.90;;;;;;5090499;28;20111;-77
2022/11/07 01:18:55;;;;;;;1.23;0.40;;;12.10;99.90;;;;;;5090057;28;20032;-74
2022/11/07 01:21:22;;;;;;;0.82;0.82;;;12.00;99.90;;;;;;5090086;28;20031;-77
2022/11/07 01:23:53;;;;;;;0.40;0.32;;;11.90;99.90;;;;;;5090077;28;20032;-74
2022/11/07 01:26:22;;;;;;;0.47;0.40;;;11.70;99.90;;;;;;5090179;28;20356;-74
2022/11/07 01:28:48;;;;;;;1.40;0.30;;;11.50;99.90;;;;;;5090082;28;20103;-74
2022/11/07 01:31:15;;;;;;;9.63;1.02;;;11.50;99.90;;;;;;5072178;28;20345;-74
2022/11/07 01:33:41;;;;;;;0.40;0.40;;;11.40;99.90;;;;;;5089765;28;20055;-76
2022/11/07 01:36:10;;;;;;;1.13;0.40;;;11.20;99.90;;;;;;5090108;28;20175;-74
2022/11/07 01:38:40;;;;;;;0.40;0.40;;;11.10;99.90;;;;;;5089736;28;20179;-75
2022/11/07 01:41:23;;;;;;;0.52;0.43;;;10.90;99.90;;;;;;5090055;28;20017;-78
2022/11/07 01:44:06;;;;;;;0.40;0.40;;;10.60;99.90;;;;;;5071972;28;20020;-76
2022/11/07 01:46:37;;;;;;;2.92;0.60;;;10.50;99.90;;;;;;5090424;28;20028;-77
2022/11/07 01:49:06;;;;;;;0.40;0.40;;;10.30;99.90;;;;;;5089932;28;20520;-76
2022/11/07 01:51:38;;;;;;;0.20;0.20;;;10.20;99.90;;;;;;5089982;28;20350;-76
2022/11/07 01:54:13;;;;;;;5.20;0.38;;;9.90;99.90;;;;;;5089783;28;20262;-74
2022/11/07 01:56:47;;;;;;;0.73;0.35;;;9.60;99.90;;;;;;5089954;28;20191;-77
2022/11/07 01:59:17;;;;;;;1.95;1.23;;;9.40;99.90;;;;;;5089619;28;20051;-75
2022/11/07 02:01:42;;;;;;;0.43;0.43;;;9.10;99.90;;;;;;5090197;28;20016;-75
2022/11/07 02:04:10;;;;;;;1.30;0.85;;;8.80;99.90;;;;;;5089603;28;20039;-74
2022/11/07 02:06:46;;;;;;;2.30;0.40;;;8.60;99.90;;;;;;5089808;28;20024;-74
2022/11/07 02:09:12;;;;;;;0.77;0.40;;;8.40;99.90;;;;;;5089826;28;20045;-74
2022/11/07 02:11:38;;;;;;;0.28;0.28;;;8.40;99.90;;;;;;5090031;28;20023;-75
2022/11/07 02:14:05;;;;;;;2.40;0.40;;;8.20;99.90;;;;;;5089401;28;20081;-74
2022/11/07 02:16:31;;;;;;;0.95;0.60;;;8.10;99.90;;;;;;5089497;28;20028;-75
2022/11/07 02:18:58;;;;;;;0.75;0.40;;;7.80;99.90;;;;;;5089297;28;20030;-78
2022/11/07 02:21:47;;;;;;;1.45;0.80;;;7.70;99.90;;;;;;5089645;28;20492;-75
2022/11/07 02:24:16;;;;;;;0.90;0.43;;;7.60;99.90;;;;;;5089551;28;20016;-74
2022/11/07 02:26:42;;;;;;;0.80;0.80;;;7.40;99.90;;;;;;5091250;28;20499;-74
2022/11/07 02:29:11;;;;;;;2.78;0.60;;;7.40;99.90;;;;;;5093244;28;20088;-74
2022/11/07 02:31:37;;;;;;;1.75;1.35;;;7.20;99.90;;;;;;5093083;28;20065;-74
2022/11/07 02:34:03;;;;;;;2.92;1.50;;;7.20;99.90;;;;;;5092277;28;20052;-74
2022/11/07 02:36:28;;;;;;;3.25;2.15;;;7.10;99.90;;;;;;5093372;28;20047;-74
2022/11/07 02:38:57;;;;;;;5.97;2.72;;;6.90;99.90;;;;;;5093682;28;20115;-74
2022/11/07 02:41:27;;;;;;;9.15;2.17;;;6.80;99.90;;;;;;5093208;28;20020;-74
2022/11/07 02:44:00;;;;;;;15.35;3.10;;;6.70;99.90;;;;;;5092181;28;20012;-74
2022/11/07 02:46:28;;;;;;;7.15;2.67;;;6.60;99.90;;;;;;5091310;28;20129;-74
2022/11/07 02:48:56;;;;;;;9.82;3.72;;;6.70;99.90;;;;;;5090967;28;20031;-74
2022/11/07 02:51:22;;;;;;;2.95;1.30;;;6.80;99.90;;;;;;5090903;28;20036;-78
2022/11/07 02:53:48;;;;;;;1.30;1.23;;;7.00;99.90;;;;;;5091117;28;20020;-74
2022/11/07 02:56:13;;;;;;;4.25;2.33;;;7.00;99.90;;;;;;5091314;28;20036;-74
2022/11/07 02:58:39;;;;;;;4.97;2.13;;;6.90;99.90;;;;;;5091624;28;20032;-75
2022/11/07 03:01:05;;;;;;;5.70;2.45;;;6.70;99.90;;;;;;5092335;28;20064;-74
2022/11/07 03:03:37;;;;;;;2.55;1.85;;;6.70;99.90;;;;;;5092507;28;20477;-76
2022/11/07 03:06:04;;;;;;;4.35;1.80;;;6.60;99.90;;;;;;5092870;28;20030;-76
2022/11/07 03:08:29;;;;;;;1.98;1.23;;;6.50;99.90;;;;;;5092566;28;20476;-74
2022/11/07 03:10:55;;;;;;;2.97;1.77;;;6.40;99.90;;;;;;5092579;28;20032;-75
2022/11/07 03:13:21;;;;;;;2.10;1.55;;;6.40;99.90;;;;;;5092539;28;20021;-77
2022/11/07 03:15:46;;;;;;;1.30;1.20;;;6.30;99.90;;;;;;5092478;28;20030;-74
2022/11/07 03:18:12;;;;;;;5.88;0.90;;;6.20;99.90;;;;;;5092085;28;20028;-74
2022/11/07 03:20:38;;;;;;;1.42;1.05;;;6.10;99.90;;;;;;5092656;28;20402;-74
2022/11/07 03:23:07;;;;;;;3.00;1.23;;;6.00;99.90;;;;;;5092246;28;20024;-77
2022/11/07 03:25:32;;;;;;;3.42;0.95;;;5.90;99.90;;;;;;5074129;28;20028;-74
2022/11/07 03:27:58;;;;;;;3.78;0.98;;;5.80;99.90;;;;;;5092397;28;20034;-74
2022/11/07 03:30:24;;;;;;;1.70;1.08;;;5.70;99.90;;;;;;5092018;28;20379;-78
2022/11/07 03:32:53;;;;;;;1.58;1.00;;;5.60;99.90;;;;;;5092321;28;20496;-74
2022/11/07 03:35:19;;;;;;;0.75;0.75;;;5.70;99.90;;;;;;5092167;28;20041;-75
2022/11/07 03:37:46;;;;;;;1.00;1.00;;;5.80;99.90;;;;;;5091673;28;20421;-74
2022/11/07 03:40:12;;;;;;;1.02;1.02;;;5.70;99.90;;;;;;5074143;28;20020;-74
2022/11/07 03:42:42;;;;;;;0.80;0.50;;;5.60;99.90;;;;;;5091897;28;20037;-74
2022/11/07 03:45:09;;;;;;;2.60;1.08;;;5.50;99.90;;;;;;5091839;28;20077;-75
2022/11/07 03:47:39;;;;;;;2.60;1.20;;;5.40;99.90;;;;;;5073330;28;20077;-75
2022/11/07 03:50:07;;;;;;;1.08;0.98;;;5.30;99.90;;;;;;5092132;28;20031;-76
2022/11/07 03:52:33;;;;;;;4.80;2.13;;;5.30;99.90;;;;;;5091779;28;20031;-74
2022/11/07 03:54:59;;;;;;;0.68;0.57;;;6.00;99.90;;;;;;5091735;28;20020;-77
2022/11/07 03:57:25;;;;;;;1.52;0.68;;;6.20;99.90;;;;;;5091920;28;20024;-74
2022/11/07 03:59:50;;;;;;;1.35;0.85;;;6.80;99.90;;;;;;5091447;28;20084;-74
2022/11/07 04:02:16;;;;;;;2.58;0.85;;;6.20;99.90;;;;;;5090937;28;20115;-73
2022/11/07 04:04:42;;;;;;;1.33;0.90;;;5.80;99.90;;;;;;5091483;28;20112;-74
2022/11/07 04:07:08;;;;;;;2.80;1.63;;;5.00;99.90;;;;;;5091403;28;20426;-74
2022/11/07 04:09:33;;;;;;;0.93;0.93;;;5.70;99.90;;;;;;5091727;28;20099;-76
2022/11/07 04:17:28;;;;;;;1.10;0.40;;;4.90;99.90;;;;;;5090874;28;20085;-74
2022/11/07 04:19:55;;;;;;;0.70;0.70;;;4.80;99.90;;;;;;5091025;28;20020;-76
2022/11/07 04:22:22;;;;;;;0.40;0.40;;;5.70;99.90;;;;;;5090934;28;20389;-75
2022/11/07 04:24:47;;;;;;;0.75;0.50;;;6.10;99.90;;;;;;5091056;28;20062;-74
2022/11/07 04:30:17;;;;;;;1.15;0.75;;;5.50;99.90;;;;;;5092427;28;20078;-74
2022/11/07 04:32:51;;;;;;;0.45;0.43;;;4.70;99.90;;;;;;5091011;28;20020;-74
2022/11/07 04:35:17;;;;;;;0.60;0.40;;;4.70;99.90;;;;;;5091290;28;20043;-75
2022/11/07 04:37:43;;;;;;;0.80;0.80;;;5.20;99.90;;;;;;5090681;28;20468;-74
2022/11/07 04:40:09;;;;;;;0.40;0.40;;;4.90;99.90;;;;;;5090705;28;20024;-77
2022/11/07 04:42:35;;;;;;;1.05;0.70;;;6.00;99.90;;;;;;5091054;28;20238;-76
2022/11/07 04:45:01;;;;;;;1.73;1.08;;;5.00;99.90;;;;;;5091264;28;20020;-74
2022/11/07 04:47:27;;;;;;;0.43;0.43;;;4.60;99.90;;;;;;5072398;28;20248;-74
2022/11/07 04:49:52;;;;;;;1.45;0.40;;;4.60;99.90;;;;;;5090539;28;20034;-77
2022/11/07 04:52:18;;;;;;;0.50;0.50;;;4.40;99.90;;;;;;5091916;28;20091;-74
2022/11/07 04:54:44;;;;;;;0.65;0.40;;;4.50;99.90;;;;;;5090942;28;20485;-74
2022/11/07 04:57:09;;;;;;;1.02;0.88;;;6.60;99.90;;;;;;5090695;28;20477;-76
2022/11/07 04:59:35;;;;;;;0.68;0.68;;;4.20;99.90;;;;;;5091563;28;20442;-75
2022/11/07 05:02:01;;;;;;;0.50;0.50;;;4.30;99.90;;;;;;5090700;28;20050;-74
2022/11/07 05:04:26;;;;;;;0.65;0.65;;;4.50;99.90;;;;;;5073505;28;20074;-74
2022/11/07 05:06:52;;;;;;;1.48;0.50;;;4.20;99.90;;;;;;5073844;28;20024;-73
2022/11/07 05:09:18;;;;;;;1.23;0.80;;;4.30;99.90;;;;;;5074261;28;20036;-75
2022/11/07 05:11:47;;;;;;;0.80;0.55;;;4.30;99.90;;;;;;5091040;28;20076;-74
2022/11/07 05:14:13;;;;;;;1.60;0.57;;;4.30;99.90;;;;;;5090934;28;20036;-77
2022/11/07 05:16:41;;;;;;;0.32;0.32;;;4.30;99.90;;;;;;5091716;28;20030;-74
2022/11/07 05:19:10;;;;;;;0.50;0.50;;;4.50;99.90;;;;;;5091200;28;20071;-77
2022/11/07 05:21:36;;;;;;;1.23;0.55;;;4.70;99.90;;;;;;5092501;28;20043;-74
2022/11/07 05:24:02;;;;;;;0.40;0.40;;;4.20;99.90;;;;;;5091273;28;20420;-74
2022/11/07 05:26:27;;;;;;;1.60;0.88;;;4.20;99.90;;;;;;5091397;28;20079;-74
2022/11/07 05:28:53;;;;;;;1.75;0.90;;;4.10;99.90;;;;;;5091363;28;20499;-75
2022/11/07 05:31:19;;;;;;;0.50;0.50;;;4.00;99.90;;;;;;5091460;28;20022;-74
2022/11/07 05:33:44;;;;;;;0.75;0.38;;;4.20;99.90;;;;;;5090752;28;20131;-74
2022/11/07 05:36:20;;;;;;;0.55;0.30;;;3.90;99.90;;;;;;5091229;28;20067;-74
2022/11/07 05:38:48;;;;;;;0.85;0.52;;;3.90;99.90;;;;;;5091946;28;20028;-74
2022/11/07 05:41:16;;;;;;;1.35;0.40;;;4.10;99.90;;;;;;5073511;28;20123;-74
2022/11/07 05:43:42;;;;;;;0.40;0.35;;;3.90;99.90;;;;;;5091346;28;20024;-74
2022/11/07 05:46:08;;;;;;;1.20;0.88;;;4.40;99.90;;;;;;5091342;28;20020;-75
2022/11/07 05:48:34;;;;;;;0.45;0.20;;;3.90;99.90;;;;;;5090955;28;20099;-76
2022/11/07 05:51:00;;;;;;;0.65;0.60;;;4.70;99.90;;;;;;5072548;28;20021;-75
2022/11/07 05:53:28;;;;;;;0.30;0.28;;;3.80;99.90;;;;;;5072997;28;20480;-74
2022/11/07 05:55:53;;;;;;;0.50;0.35;;;4.00;99.90;;;;;;5090871;28;20048;-74
2022/11/07 05:58:20;;;;;;;0.30;0.30;;;4.10;99.90;;;;;;5091467;28;20125;-73
2022/11/07 06:00:46;;;;;;;0.50;0.40;;;4.10;99.90;;;;;;5092513;28;20027;-74
2022/11/07 06:03:13;;;;;;;0.85;0.85;;;4.10;99.90;;;;;;5094330;28;20106;-74
2022/11/07 06:05:39;;;;;;;0.50;0.50;;;4.20;99.90;;;;;;5094268;28;20019;-77
2022/11/07 06:08:07;;;;;;;1.70;0.98;;;4.30;99.90;;;;;;5093948;28;20028;-75
2022/11/07 06:10:35;;;;;;;0.77;0.77;;;5.40;99.90;;;;;;5093856;28;20012;-77
2022/11/07 06:13:03;;;;;;;1.40;0.80;;;5.40;99.90;;;;;;5094388;28;20028;-74
2022/11/07 06:15:32;;;;;;;3.38;0.40;;;6.00;99.90;;;;;;5093953;28;20016;-74
2022/11/07 06:18:07;;;;;;;0.50;0.45;;;4.70;99.90;;;;;;5094176;28;20467;-74
2022/11/07 06:20:34;;;;;;;0.60;0.60;;;4.70;99.90;;;;;;5093669;28;20016;-74
2022/11/07 06:23:01;;;;;;;2.22;0.60;;;4.70;99.90;;;;;;5076416;28;20059;-76
2022/11/07 06:25:28;;;;;;;0.50;0.50;;;4.80;99.90;;;;;;5094962;28;20040;-74
2022/11/07 06:27:59;;;;;;;3.65;0.77;;;4.70;99.90;;;;;;5075308;28;20024;-74
2022/11/07 06:30:24;;;;;;;2.30;1.10;;;4.80;99.90;;;;;;5093321;28;20519;-74
2022/11/07 06:32:50;;;;;;;1.02;0.40;;;4.90;99.90;;;;;;5074788;28;20123;-74
2022/11/07 06:35:15;;;;;;;0.50;0.47;;;4.80;99.90;;;;;;5100179;28;20099;-74
2022/11/07 06:37:41;;;;;;;1.17;0.60;;;4.80;99.90;;;;;;5097750;28;20028;-74
2022/11/07 06:40:08;;;;;;;0.40;0.40;;;4.80;99.90;;;;;;5098333;28;20036;-75
2022/11/07 06:42:33;;;;;;;0.50;0.50;;;4.80;99.90;;;;;;5080361;28;20020;-75
2022/11/07 06:44:59;;;;;;;0.40;0.40;;;4.90;99.90;;;;;;5098231;28;20027;-76
2022/11/07 06:47:25;;;;;;;2.15;0.40;;;4.90;99.90;;;;;;5089891;28;20027;-75
2022/11/07 06:49:50;;;;;;;0.65;0.63;;;4.90;99.90;;;;;;5102660;28;20123;-75
2022/11/07 06:52:16;;;;;;;1.08;0.57;;;5.00;99.90;;;;;;5083053;28;20442;-78
2022/11/07 06:54:42;;;;;;;0.70;0.68;;;5.40;99.90;;;;;;5092506;28;20024;-79
2022/11/07 06:57:08;;;;;;;1.33;1.23;;;5.20;99.90;;;;;;5092813;28;20028;-78
2022/11/07 06:59:34;;;;;;;11.13;3.60;;;5.10;99.90;;;;;;5111048;28;20035;-77
2022/11/07 07:02:00;;;;;;;2.38;1.13;;;5.10;99.90;;;;;;5109820;28;20440;-78
2022/11/07 07:04:25;;;;;;;1.48;0.93;;;5.20;99.90;;;;;;5109819;28;20028;-78
2022/11/07 07:06:52;;;;;;;7.55;1.73;;;5.40;99.90;;;;;;5109806;28;20031;-77
2022/11/07 07:09:18;;;;;;;0.98;0.82;;;5.60;99.90;;;;;;5107988;28;20051;-79
2022/11/07 07:11:44;;;;;;;2.70;1.83;;;6.30;99.90;;;;;;5089183;28;20491;-78
2022/11/07 07:14:10;;;;;;;10.43;6.32;;;5.90;99.90;;;;;;5089985;28;20111;-76
2022/11/07 07:16:36;;;;;;;4.88;3.67;;;6.70;99.90;;;;;;5088869;28;20027;-78
2022/11/07 07:19:02;;;;;;;2.72;2.30;;;5.60;99.90;;;;;;5089402;28;20040;-77
2022/11/07 07:21:28;;;;;;;3.08;1.65;;;6.10;99.90;;;;;;5088753;28;20452;-77
2022/11/07 07:23:54;;;;;;;4.60;1.75;;;5.70;99.90;;;;;;5089048;28;20043;-76
2022/11/07 07:26:20;;;;;;;5.38;2.53;;;8.30;99.90;;;;;;5089065;28;20021;-77
2022/11/07 07:28:47;;;;;;;5.60;4.10;;;5.90;99.90;;;;;;5077606;28;20419;-78
2022/11/07 07:31:13;;;;;;;8.13;5.07;;;6.00;99.90;;;;;;5109105;28;20145;-77
2022/11/07 07:33:43;;;;;;;4.63;2.53;;;6.20;99.90;;;;;;5109592;28;20166;-77
2022/11/07 07:36:09;;;;;;;4.70;2.22;;;6.40;99.90;;;;;;5110617;28;20031;-76
2022/11/07 07:38:35;;;;;;;5.68;3.25;;;6.60;99.90;;;;;;5109703;28;20031;-77
2022/11/07 07:41:01;;;;;;;11.05;3.05;;;6.60;99.90;;;;;;5109479;28;20102;-77
2022/11/07 07:43:28;;;;;;;10.25;3.92;;;6.70;99.90;;;;;;5109426;28;20020;-77
2022/11/07 07:45:57;;;;;;;8.45;3.72;;;6.80;99.90;;;;;;5107265;28;20012;-78
2022/11/07 07:48:23;;;;;;;3.38;3.08;;;6.90;99.90;;;;;;5088623;28;20024;-78
2022/11/07 07:50:49;;;;;;;3.83;3.15;;;6.90;99.90;;;;;;5088533;28;20024;-78
2022/11/07 07:53:15;;;;;;;2.58;2.35;;;7.00;99.90;;;;;;5089178;28;20483;-77
2022/11/07 07:55:40;;;;;;;2.03;1.48;;;7.00;99.90;;;;;;5088891;28;20024;-78
2022/11/07 07:58:06;;;;;;;0.95;0.95;;;7.10;99.90;;;;;;5070012;28;20039;-78
2022/11/07 08:00:32;;;;;;;3.58;1.20;;;7.20;99.90;;;;;;5088360;28;20026;-77
2022/11/07 08:03:03;;;;;;;2.30;1.33;;;7.40;99.90;;;;;;5087758;28;20028;-76
2022/11/07 08:05:28;;;;;;;2.67;1.00;;;7.50;99.90;;;;;;5087990;28;20027;-75
2022/11/07 08:07:55;;;;;;;1.30;1.20;;;7.80;99.90;;;;;;5090404;28;20028;-77
2022/11/07 08:10:21;;;;;;;1.77;1.00;;;8.20;99.90;;;;;;5069637;28;20208;-77
2022/11/07 08:12:52;;;;;;;1.88;1.23;;;8.50;99.90;;;;;;5088294;28;20221;-78
2022/11/07 08:15:24;;;;;;;49.65;14.70;;;8.70;99.90;;;;;;5069417;28;20401;-78
2022/11/07 08:17:53;;;;;;;17.73;5.18;;;8.90;99.90;;;;;;5069796;28;20028;-77
2022/11/07 08:20:24;;;;;;;1.50;1.30;;;8.90;99.90;;;;;;5087956;28;20109;-77
2022/11/07 08:23:06;;;;;;;10.50;2.38;;;9.10;99.90;;;;;;5069977;28;20393;-78
2022/11/07 08:25:32;;;;;;;8.50;2.47;;;9.30;99.90;;;;;;5087519;28;20027;-78
2022/11/07 08:27:58;;;;;;;9.15;3.78;;;9.60;99.90;;;;;;5087670;28;20390;-77
2022/11/07 08:30:29;;;;;;;8.05;3.13;;;9.70;99.90;;;;;;5088254;28;20031;-78
2022/11/07 08:32:58;;;;;;;1.92;1.52;;;9.90;99.90;;;;;;5087945;28;20070;-78
2022/11/07 08:35:23;;;;;;;25.33;9.88;;;10.10;99.90;;;;;;5069572;28;20040;-78
2022/11/07 08:37:52;;;;;;;19.50;7.32;;;10.20;99.90;;;;;;5069516;28;20467;-81
2022/11/07 08:40:18;;;;;;;12.80;6.73;;;10.40;99.90;;;;;;5070784;28;20404;-78
2022/11/07 08:42:43;;;;;;;12.23;4.75;;;10.50;99.90;;;;;;5087779;28;20024;-77
2022/11/07 08:45:09;;;;;;;3.10;2.53;;;10.50;99.90;;;;;;5069153;28;20519;-78
2022/11/07 08:47:35;;;;;;;8.80;2.70;;;10.50;99.90;;;;;;5103788;28;20487;-76
2022/11/07 08:50:01;;;;;;;6.70;3.80;;;10.50;99.90;;;;;;5108532;28;20019;-77
2022/11/07 08:52:26;;;;;;;9.60;2.95;;;10.70;99.90;;;;;;5089561;28;20610;-77
2022/11/07 08:54:52;;;;;;;4.10;2.45;;;10.80;99.90;;;;;;5107673;28;20407;-78
2022/11/07 08:57:18;;;;;;;5.60;2.85;;;10.90;99.90;;;;;;5107612;28;20038;-78
2022/11/07 08:59:44;;;;;;;4.88;2.95;;;11.10;99.90;;;;;;5089866;28;20036;-77
2022/11/07 09:02:11;;;;;;;6.13;3.10;;;11.20;99.90;;;;;;5108162;28;20024;-77
2022/11/07 09:04:37;;;;;;;4.18;2.65;;;11.30;99.90;;;;;;5107377;28;20023;-77
2022/11/07 09:07:03;;;;;;;3.05;2.63;;;11.40;99.90;;;;;;5107813;28;20475;-78
2022/11/07 09:09:32;;;;;;;6.07;2.90;;;11.50;99.90;;;;;;5107405;28;20024;-78
2022/11/07 09:12:10;;;;;;;3.85;2.90;;;11.60;99.90;;;;;;5107497;28;20368;-77
2022/11/07 09:14:36;;;;;;;9.68;2.35;;;11.70;99.90;;;;;;5107402;28;20024;-77
2022/11/07 09:17:02;;;;;;;3.08;2.28;;;11.60;99.90;;;;;;5107670;28;20084;-78
2022/11/07 09:19:31;;;;;;;7.25;2.92;;;11.70;99.90;;;;;;5089915;28;20047;-77
2022/11/07 09:21:57;;;;;;;6.38;3.15;;;11.80;99.90;;;;;;5107600;28;20023;-77
2022/11/07 09:24:25;;;;;;;2.97;1.50;;;11.80;99.90;;;;;;5107397;28;20023;-78
2022/11/07 09:26:51;;;;;;;0.87;0.70;;;12.50;99.90;;;;;;5089177;28;20436;-78
2022/11/07 09:29:16;;;;;;;5.95;1.35;;;12.50;99.90;;;;;;5106652;28;20035;-79
2022/11/07 09:31:42;;;;;;;3.72;2.00;;;12.90;99.90;;;;;;5088422;28;20024;-76
2022/11/07 09:34:08;;;;;;;4.78;2.65;;;13.40;99.90;;;;;;5106723;28;20546;-79
2022/11/07 09:36:51;;;;;;;5.03;3.00;;;12.80;99.90;;;;;;5107881;28;20012;-78
2022/11/07 09:39:17;;;;;;;4.60;2.88;;;12.80;99.90;;;;;;5106638;28;20476;-78
2022/11/07 09:41:48;;;;;;;5.25;2.50;;;12.60;99.90;;;;;;5108284;28;20023;-78
2022/11/07 09:44:38;;;;;;;4.43;2.15;;;12.40;99.90;;;;;;5106908;28;20030;-78
2022/11/07 09:47:13;;;;;;;2.65;2.00;;;12.40;99.90;;;;;;5094814;28;20028;-77
2022/11/07 09:50:02;;;;;;;1.55;0.95;;;12.50;99.90;;;;;;5086734;28;20564;-77
2022/11/07 09:53:31;;;;;;;0.47;0.40;;;12.90;99.90;;;;;;5086210;28;20052;-78
2022/11/07 09:55:59;;;;;;;0.15;0.15;;;14.30;99.90;;;;;;4988280;28;20049;-79
2022/11/07 09:58:46;;;;;;;3.43;0.40;;;14.80;99.90;;;;;;4967722;28;20042;-80
2022/11/07 10:01:15;;;;;;;1.45;0.45;;;15.20;99.90;;;;;;5065449;28;20109;-76
2022/11/07 10:03:41;;;;;;;;;;;15.40;96.20;;;;;;5086486;28;20400;-79
2022/11/07 10:06:22;;;;;;;0.10;0.10;;;15.60;95.50;;;;;;5086111;28;19949;-78
2022/11/07 10:08:56;;;;;;;0.40;0.40;;;15.70;94.20;;;;;;5086362;28;20032;-79
2022/11/07 10:11:35;;;;;;;0.47;0.10;;;15.40;94.70;;;;;;5068738;28;20436;-79
2022/11/07 10:14:17;;;;;;;0.98;0.28;;;15.70;93.40;;;;;;5086347;28;20078;-78
2022/11/07 10:16:55;;;;;;;1.10;0.20;;;15.70;94.00;;;;;;5086116;28;20020;-79
2022/11/07 10:19:30;;;;;;;2.60;0.40;;;15.70;93.60;;;;;;5067721;28;20453;-78
2022/11/07 10:21:59;;;;;;;0.15;0.15;;;15.60;93.60;;;;;;5069475;28;20028;-78
2022/11/07 10:24:45;;;;;;;0.40;0.22;;;15.50;93.00;;;;;;5085931;28;20310;-78
2022/11/07 10:27:11;;;;;;;0.32;0.32;;;15.40;92.70;;;;;;5085378;28;20032;-78
2022/11/07 10:29:51;;;;;;;0.10;0.10;;;15.50;92.90;;;;;;5086329;28;20097;-79
2022/11/07 10:32:26;;;;;;;;;;;15.50;93.00;;;;;;5068234;28;20024;-79
2022/11/07 10:34:59;;;;;;;1.15;0.50;;;15.50;92.40;;;;;;5086672;28;19962;-80
2022/11/07 10:37:25;;;;;;;2.75;0.45;;;15.60;91.40;;;;;;5085979;28;20455;-79
2022/11/07 10:39:50;;;;;;;0.60;0.30;;;14.50;92.00;;;;;;5067941;28;20027;-78
2022/11/07 10:42:21;;;;;;;0.22;0.22;;;15.70;91.80;;;;;;5098507;28;20042;-77
2022/11/07 10:44:47;;;;;;;0.20;0.13;;;15.70;92.10;;;;;;5106215;28;20031;-78
2022/11/07 10:47:25;;;;;;;0.22;0.20;;;15.70;91.90;;;;;;5076386;28;20049;-77
2022/11/07 10:49:58;;;;;;;1.40;0.50;;;15.80;92.60;;;;;;5090019;28;20024;-79
2022/11/07 10:52:25;;;;;;;5.38;0.40;;;15.90;91.50;;;;;;5090875;28;20035;-77
2022/11/07 10:55:03;;;;;;;1.70;0.35;;;15.90;91.40;;;;;;5072343;28;20048;-76
2022/11/07 10:57:29;;;;;;;1.48;0.17;;;15.90;90.30;;;;;;5092174;28;20028;-78
2022/11/07 10:59:57;;;;;;;1.05;0.50;;;15.90;91.10;;;;;;5092721;28;20500;-79
2022/11/07 11:02:29;;;;;;;0.32;0.20;;;16.00;90.20;;;;;;5074166;28;20028;-78
2022/11/07 11:05:03;;;;;;;4.90;1.10;;;16.10;89.90;;;;;;5089262;28;20019;-78
2022/11/07 11:07:37;;;;;;;0.70;0.15;;;16.10;90.30;;;;;;5089629;28;20028;-78
2022/11/07 11:10:36;;;;;;;2.58;0.10;;;16.10;89.30;;;;;;5089548;28;20035;-80
2022/11/07 11:13:02;;;;;;;0.43;0.30;;;16.20;87.70;;;;;;5093031;28;20032;-77
2022/11/07 11:15:29;;;;;;;1.98;0.30;;;16.30;89.90;;;;;;5089191;28;20055;-78
2022/11/07 11:17:59;;;;;;;1.33;0.30;;;16.30;89.90;;;;;;5089361;28;20484;-79
2022/11/07 11:20:33;;;;;;;2.20;0.50;;;16.30;88.40;;;;;;5089137;28;20073;-78
2022/11/07 11:23:02;;;;;;;1.42;0.30;;;16.30;87.20;;;;;;5070748;28;20552;-79
2022/11/07 11:25:28;;;;;;;0.90;0.67;;;16.20;85.90;;;;;;5070693;28;20476;-78
2022/11/07 11:28:04;;;;;;;0.63;0.20;;;16.00;87.90;;;;;;5089213;28;20031;-78
2022/11/07 11:30:34;;;;;;;0.40;0.20;;;16.10;90.20;;;;;;5090707;28;20025;-79
2022/11/07 11:33:11;;;;;;;0.30;0.30;;;16.00;86.70;;;;;;5088892;28;20103;-78
2022/11/07 11:35:45;;;;;;;3.13;0.65;;;16.00;87.00;;;;;;5070252;28;20040;-78
2022/11/07 11:38:27;;;;;;;2.85;0.80;;;15.90;88.10;;;;;;5089081;28;20039;-78
2022/11/07 11:41:37;;;;;;;3.30;0.45;;;15.90;89.60;;;;;;5027811;28;20109;-78
2022/11/07 11:44:19;;;;;;;0.70;0.55;;;15.90;89.90;;;;;;5049456;28;20021;-78
2022/11/07 11:47:07;;;;;;;0.20;0.17;;;15.90;90.10;;;;;;5020860;28;20026;-78
2022/11/07 11:50:04;;;;;;;1.08;0.93;;;16.00;90.40;;;;;;5010797;28;20117;-79
2022/11/07 11:52:33;;;;;;;0.10;0.10;;;16.20;89.80;;;;;;5007202;28;20482;-78
2022/11/07 11:55:00;;;;;;;4.97;0.35;;;16.20;90.40;;;;;;5010512;28;20041;-79
2022/11/07 11:57:45;;;;;;;8.88;0.82;;;16.10;89.40;;;;;;5011002;28;20110;-78
2022/11/07 12:00:21;;;;;;;0.25;0.20;;;16.20;88.20;;;;;;5028698;28;20513;-79
2022/11/07 12:03:32;;;;;;;0.30;0.22;;;16.20;90.00;;;;;;5027933;28;20090;-78
2022/11/07 12:06:18;;;;;;;0.40;0.40;;;16.20;86.70;;;;;;5010714;28;20027;-80
2022/11/07 12:08:50;;;;;;;1.67;0.45;;;16.20;86.60;;;;;;5013567;28;20435;-81
2022/11/07 12:11:39;;;;;;;0.93;0.20;;;16.20;85.30;;;;;;5010652;28;20465;-78
2022/11/07 12:14:17;;;;;;;1.95;0.63;;;16.30;86.70;;;;;;5010167;28;20029;-77
2022/11/07 12:17:18;;;;;;;0.17;0.17;;;16.50;87.20;;;;;;5010088;28;20030;-79
2022/11/07 12:19:52;;;;;;;0.38;0.32;;;16.60;84.60;;;;;;5028466;28;20040;-79
2022/11/07 12:22:39;;;;;;;0.20;0.20;;;16.60;82.80;;;;;;5010095;28;20044;-79
2022/11/07 12:25:19;;;;;;;0.73;0.22;;;16.60;83.10;;;;;;5028420;28;20064;-78
2022/11/07 12:28:09;;;;;;;0.80;0.20;;;16.80;83.00;;;;;;5027970;28;20025;-77
2022/11/07 12:30:50;;;;;;;0.55;0.10;;;16.90;79.00;;;;;;5027442;28;20048;-78
2022/11/07 12:34:09;;;;;;;1.38;0.20;;;17.00;74.40;;;;;;5027187;28;20509;-78
2022/11/07 12:36:55;;;;;;;0.15;0.15;;;17.00;73.70;;;;;;4965953;28;20081;-77
2022/11/07 12:39:21;;;;;;;0.30;0.30;;;17.10;71.60;;;;;;4949959;28;20101;-78
2022/11/07 12:41:57;;;;;;;0.25;0.13;;;17.80;72.10;;;;;;5008788;28;20046;-78
2022/11/07 12:44:22;;;;;;;0.20;0.20;;;18.70;65.50;;;;;;5009613;28;20079;-78
2022/11/07 12:46:56;;;;;;;0.65;0.32;;;18.90;62.70;;;;;;5037359;28;20042;-78
2022/11/07 12:49:50;;;;;;;0.52;0.35;;;18.80;62.20;;;;;;5029316;28;20050;-79
2022/11/07 12:52:44;;;;;;;1.25;0.10;;;19.10;61.70;;;;;;5029508;28;20128;-79
2022/11/07 12:55:18;;;;;;;1.63;0.57;;;19.30;60.90;;;;;;5029207;28;20032;-79
2022/11/07 12:57:46;;;;;;;0.10;0.10;;;17.20;58.70;;;;;;5047803;28;20083;-79
2022/11/07 13:00:23;;;;;;;0.08;0.08;;;19.80;60.90;;;;;;5029103;28;20299;-79
2022/11/07 13:03:10;;;;;;;2.47;0.17;;;19.70;59.90;;;;;;5046775;28;20492;-79
2022/11/07 13:05:41;;;;;;;0.45;0.30;;;18.70;58.50;;;;;;5028826;28;20167;-79
2022/11/07 13:08:22;;;;;;;0.05;0.05;;;18.30;60.90;;;;;;5031442;28;20028;-78
2022/11/07 13:11:05;;;;;;;1.75;0.28;;;18.20;61.40;;;;;;5030452;28;20383;-79
2022/11/07 13:13:49;;;;;;;0.17;0.00;;;18.50;62.10;;;;;;5046909;28;20027;-81
2022/11/07 13:16:27;;;;;;;0.00;0.00;;;19.10;60.20;;;;;;5046991;28;20108;-79
2022/11/07 13:18:53;;;;;;;0.35;0.08;;;19.80;59.30;;;;;;5029253;28;20128;-78